sensor_id;sensor_type;location;lat;lon;timestamp;pressure;altitude;pressure_sealevel;temperature;humidity
73024;BME280;61199;47.526;8.538;2022-08-21T00:00:08;96662.28;;;20.91;71.77
73024;BME280;61199;47.526;8.538;2022-08-21T00:02:35;96662.53;;;20.96;71.55
73024;BME280;61199;47.526;8.538;2022-08-21T00:05:03;96656.69;;;20.86;71.64
73024;BME280;61199;47.526;8.538;2022-08-21T00:07:29;96656.56;;;20.73;72.40
73024;BME280;61199;47.526;8.538;2022-08-21T00:09:56;96654.13;;;20.78;72.13
73024;BME280;61199;47.526;8.538;2022-08-21T00:12:23;96650.09;;;20.82;72.06
73024;BME280;61199;47.526;8.538;2022-08-21T00:14:49;96645.38;;;20.84;71.66
73024;BME280;61199;47.526;8.538;2022-08-21T00:17:22;96650.78;;;20.90;72.23
73024;BME280;61199;47.526;8.538;2022-08-21T00:19:48;96647.03;;;20.85;71.40
73024;BME280;61199;47.526;8.538;2022-08-21T00:22:15;96650.50;;;20.85;72.43
73024;BME280;61199;47.526;8.538;2022-08-21T00:24:41;96653.56;;;20.82;72.64
73024;BME280;61199;47.526;8.538;2022-08-21T00:27:08;96658.09;;;20.82;72.87
73024;BME280;61199;47.526;8.538;2022-08-21T00:29:34;96650.00;;;20.75;72.66
73024;BME280;61199;47.526;8.538;2022-08-21T00:32:00;96651.81;;;20.68;73.27
73024;BME280;61199;47.526;8.538;2022-08-21T00:34:27;96651.59;;;20.70;73.13
73024;BME280;61199;47.526;8.538;2022-08-21T00:36:53;96651.16;;;20.66;73.55
73024;BME280;61199;47.526;8.538;2022-08-21T00:39:20;96647.16;;;20.77;73.35
73024;BME280;61199;47.526;8.538;2022-08-21T00:41:46;96656.94;;;20.70;73.27
73024;BME280;61199;47.526;8.538;2022-08-21T00:44:13;96653.34;;;20.77;73.36
73024;BME280;61199;47.526;8.538;2022-08-21T00:46:41;96652.88;;;20.74;73.51
73024;BME280;61199;47.526;8.538;2022-08-21T00:49:09;96652.38;;;20.85;73.13
73024;BME280;61199;47.526;8.538;2022-08-21T00:51:48;96648.53;;;20.87;73.17
73024;BME280;61199;47.526;8.538;2022-08-21T00:54:17;96646.78;;;20.80;73.52
73024;BME280;61199;47.526;8.538;2022-08-21T00:56:50;96655.03;;;20.85;73.26
73024;BME280;61199;47.526;8.538;2022-08-21T00:59:21;96652.00;;;20.88;73.50
73024;BME280;61199;47.526;8.538;2022-08-21T01:01:49;96661.84;;;20.87;73.43
73024;BME280;61199;47.526;8.538;2022-08-21T01:04:16;96653.47;;;20.90;72.97
73024;BME280;61199;47.526;8.538;2022-08-21T01:06:43;96648.56;;;20.94;73.20
73024;BME280;61199;47.526;8.538;2022-08-21T01:09:10;96644.06;;;20.94;73.08
73024;BME280;61199;47.526;8.538;2022-08-21T01:11:36;96641.78;;;20.91;73.33
73024;BME280;61199;47.526;8.538;2022-08-21T01:14:03;96639.81;;;21.00;73.09
73024;BME280;61199;47.526;8.538;2022-08-21T01:16:29;96638.41;;;21.04;72.88
73024;BME280;61199;47.526;8.538;2022-08-21T01:18:56;96633.41;;;20.94;73.47
73024;BME280;61199;47.526;8.538;2022-08-21T01:21:26;96631.97;;;20.92;73.53
73024;BME280;61199;47.526;8.538;2022-08-21T01:23:56;96627.66;;;20.91;73.75
73024;BME280;61199;47.526;8.538;2022-08-21T01:26:31;96628.28;;;20.93;73.76
73024;BME280;61199;47.526;8.538;2022-08-21T01:29:05;96618.66;;;20.92;73.73
73024;BME280;61199;47.526;8.538;2022-08-21T01:31:33;96616.63;;;20.94;73.77
73024;BME280;61199;47.526;8.538;2022-08-21T01:34:00;96615.84;;;21.00;73.64
73024;BME280;61199;47.526;8.538;2022-08-21T01:36:27;96615.72;;;20.87;74.16
73024;BME280;61199;47.526;8.538;2022-08-21T01:38:54;96611.69;;;20.91;73.54
73024;BME280;61199;47.526;8.538;2022-08-21T01:41:21;96614.53;;;20.89;73.77
73024;BME280;61199;47.526;8.538;2022-08-21T01:43:48;96610.53;;;21.00;73.57
73024;BME280;61199;47.526;8.538;2022-08-21T01:46:15;96611.38;;;21.07;73.00
73024;BME280;61199;47.526;8.538;2022-08-21T01:48:42;96610.31;;;21.01;73.47
73024;BME280;61199;47.526;8.538;2022-08-21T01:51:09;96605.38;;;20.98;73.64
73024;BME280;61199;47.526;8.538;2022-08-21T01:53:36;96599.22;;;20.98;73.81
73024;BME280;61199;47.526;8.538;2022-08-21T01:56:05;96603.34;;;21.00;73.72
73024;BME280;61199;47.526;8.538;2022-08-21T01:58:39;96600.03;;;20.98;73.51
73024;BME280;61199;47.526;8.538;2022-08-21T02:01:06;96596.94;;;20.95;73.73
73024;BME280;61199;47.526;8.538;2022-08-21T02:03:33;96594.03;;;20.90;73.73
73024;BME280;61199;47.526;8.538;2022-08-21T02:06:02;96592.38;;;20.89;73.86
73024;BME280;61199;47.526;8.538;2022-08-21T02:08:29;96585.84;;;20.91;73.55
73024;BME280;61199;47.526;8.538;2022-08-21T02:10:55;96578.91;;;20.97;73.36
73024;BME280;61199;47.526;8.538;2022-08-21T02:13:22;96586.28;;;20.95;73.68
73024;BME280;61199;47.526;8.538;2022-08-21T02:15:48;96586.69;;;20.92;73.13
73024;BME280;61199;47.526;8.538;2022-08-21T02:18:15;96589.47;;;20.84;74.31
73024;BME280;61199;47.526;8.538;2022-08-21T02:20:45;96583.50;;;20.82;73.74
73024;BME280;61199;47.526;8.538;2022-08-21T02:23:13;96586.97;;;20.82;73.76
73024;BME280;61199;47.526;8.538;2022-08-21T02:25:40;96584.09;;;20.77;74.06
73024;BME280;61199;47.526;8.538;2022-08-21T02:28:10;96585.03;;;20.91;73.54
73024;BME280;61199;47.526;8.538;2022-08-21T02:30:40;96580.91;;;20.88;73.45
73024;BME280;61199;47.526;8.538;2022-08-21T02:33:08;96587.28;;;20.87;73.58
73024;BME280;61199;47.526;8.538;2022-08-21T02:35:36;96582.00;;;20.73;74.29
73024;BME280;61199;47.526;8.538;2022-08-21T02:38:07;96580.59;;;20.77;74.31
73024;BME280;61199;47.526;8.538;2022-08-21T02:40:40;96578.75;;;20.77;73.89
73024;BME280;61199;47.526;8.538;2022-08-21T02:43:13;96584.91;;;20.78;74.08
73024;BME280;61199;47.526;8.538;2022-08-21T02:45:41;96576.72;;;20.79;73.79
73024;BME280;61199;47.526;8.538;2022-08-21T02:48:10;96576.16;;;20.84;73.55
73024;BME280;61199;47.526;8.538;2022-08-21T02:50:48;96583.13;;;20.85;73.54
73024;BME280;61199;47.526;8.538;2022-08-21T02:53:17;96581.09;;;20.87;72.83
73024;BME280;61199;47.526;8.538;2022-08-21T02:55:45;96589.03;;;20.80;73.50
73024;BME280;61199;47.526;8.538;2022-08-21T02:58:15;96581.22;;;20.79;72.94
73024;BME280;61199;47.526;8.538;2022-08-21T03:00:43;96586.53;;;20.79;73.21
73024;BME280;61199;47.526;8.538;2022-08-21T03:03:10;96573.94;;;20.66;73.62
73024;BME280;61199;47.526;8.538;2022-08-21T03:05:37;96571.72;;;20.70;73.13
73024;BME280;61199;47.526;8.538;2022-08-21T03:08:06;96578.94;;;20.76;73.04
73024;BME280;61199;47.526;8.538;2022-08-21T03:10:38;96575.84;;;20.72;73.24
73024;BME280;61199;47.526;8.538;2022-08-21T03:13:06;96578.03;;;20.62;73.14
73024;BME280;61199;47.526;8.538;2022-08-21T03:15:32;96579.72;;;20.70;73.49
73024;BME280;61199;47.526;8.538;2022-08-21T03:17:59;96574.19;;;20.71;73.42
73024;BME280;61199;47.526;8.538;2022-08-21T03:20:27;96570.06;;;20.69;73.51
73024;BME280;61199;47.526;8.538;2022-08-21T03:22:55;96578.06;;;20.69;73.48
73024;BME280;61199;47.526;8.538;2022-08-21T03:25:22;96578.19;;;20.61;73.81
73024;BME280;61199;47.526;8.538;2022-08-21T03:28:08;96579.22;;;20.60;74.13
73024;BME280;61199;47.526;8.538;2022-08-21T03:30:40;96584.41;;;20.68;74.12
73024;BME280;61199;47.526;8.538;2022-08-21T03:33:07;96585.66;;;20.72;73.64
73024;BME280;61199;47.526;8.538;2022-08-21T03:35:33;96583.47;;;20.54;74.38
73024;BME280;61199;47.526;8.538;2022-08-21T03:38:00;96579.66;;;20.63;74.42
73024;BME280;61199;47.526;8.538;2022-08-21T03:40:26;96572.28;;;20.65;73.98
73024;BME280;61199;47.526;8.538;2022-08-21T03:42:52;96583.53;;;20.61;74.39
73024;BME280;61199;47.526;8.538;2022-08-21T03:45:19;96577.41;;;20.60;74.56
73024;BME280;61199;47.526;8.538;2022-08-21T03:48:00;96577.44;;;20.67;74.21
73024;BME280;61199;47.526;8.538;2022-08-21T03:50:33;96575.53;;;20.61;74.51
73024;BME280;61199;47.526;8.538;2022-08-21T03:53:00;96571.38;;;20.52;74.85
73024;BME280;61199;47.526;8.538;2022-08-21T03:55:27;96572.38;;;20.51;74.89
73024;BME280;61199;47.526;8.538;2022-08-21T03:57:53;96572.84;;;20.54;74.83
73024;BME280;61199;47.526;8.538;2022-08-21T04:00:20;96571.22;;;20.60;74.60
73024;BME280;61199;47.526;8.538;2022-08-21T04:02:47;96569.19;;;20.62;74.68
73024;BME280;61199;47.526;8.538;2022-08-21T04:05:14;96567.09;;;20.57;74.87
73024;BME280;61199;47.526;8.538;2022-08-21T04:07:54;96562.31;;;20.46;75.28
73024;BME280;61199;47.526;8.538;2022-08-21T04:10:21;96566.66;;;20.54;75.16
73024;BME280;61199;47.526;8.538;2022-08-21T04:12:50;96576.13;;;20.56;75.20
73024;BME280;61199;47.526;8.538;2022-08-21T04:15:17;96572.88;;;20.61;74.64
73024;BME280;61199;47.526;8.538;2022-08-21T04:17:43;96583.22;;;20.70;73.99
73024;BME280;61199;47.526;8.538;2022-08-21T04:20:10;96571.72;;;20.70;73.71
73024;BME280;61199;47.526;8.538;2022-08-21T04:22:36;96577.44;;;20.67;73.82
73024;BME280;61199;47.526;8.538;2022-08-21T04:25:03;96579.41;;;20.58;74.20
73024;BME280;61199;47.526;8.538;2022-08-21T04:27:29;96581.00;;;20.53;74.28
73024;BME280;61199;47.526;8.538;2022-08-21T04:29:56;96583.16;;;20.43;74.31
73024;BME280;61199;47.526;8.538;2022-08-21T04:32:23;96581.84;;;20.53;73.87
73024;BME280;61199;47.526;8.538;2022-08-21T04:34:50;96588.63;;;20.56;73.70
73024;BME280;61199;47.526;8.538;2022-08-21T04:37:17;96577.88;;;20.49;73.96
73024;BME280;61199;47.526;8.538;2022-08-21T04:39:43;96577.56;;;20.59;73.32
73024;BME280;61199;47.526;8.538;2022-08-21T04:42:09;96585.56;;;20.59;73.13
73024;BME280;61199;47.526;8.538;2022-08-21T04:44:36;96581.84;;;20.53;73.58
73024;BME280;61199;47.526;8.538;2022-08-21T04:47:03;96582.16;;;20.44;73.20
73024;BME280;61199;47.526;8.538;2022-08-21T04:49:29;96591.41;;;20.48;72.81
73024;BME280;61199;47.526;8.538;2022-08-21T04:51:57;96599.53;;;20.40;73.70
73024;BME280;61199;47.526;8.538;2022-08-21T04:54:23;96605.69;;;20.40;73.35
73024;BME280;61199;47.526;8.538;2022-08-21T04:57:00;96609.84;;;20.28;73.58
73024;BME280;61199;47.526;8.538;2022-08-21T04:59:35;96597.59;;;20.34;73.42
73024;BME280;61199;47.526;8.538;2022-08-21T05:02:03;96599.25;;;20.35;73.40
73024;BME280;61199;47.526;8.538;2022-08-21T05:04:33;96604.84;;;20.40;72.99
73024;BME280;61199;47.526;8.538;2022-08-21T05:07:04;96606.28;;;20.21;73.81
73024;BME280;61199;47.526;8.538;2022-08-21T05:09:32;96605.09;;;20.24;74.03
73024;BME280;61199;47.526;8.538;2022-08-21T05:12:01;96604.97;;;20.32;73.65
73024;BME280;61199;47.526;8.538;2022-08-21T05:14:28;96602.94;;;20.34;73.73
73024;BME280;61199;47.526;8.538;2022-08-21T05:16:55;96612.81;;;20.40;73.31
73024;BME280;61199;47.526;8.538;2022-08-21T05:19:21;96599.69;;;20.38;73.12
73024;BME280;61199;47.526;8.538;2022-08-21T05:21:48;96614.59;;;20.33;73.50
73024;BME280;61199;47.526;8.538;2022-08-21T05:24:15;96607.00;;;20.30;73.77
73024;BME280;61199;47.526;8.538;2022-08-21T05:26:42;96612.31;;;20.30;73.63
73024;BME280;61199;47.526;8.538;2022-08-21T05:29:14;96611.94;;;20.33;73.20
73024;BME280;61199;47.526;8.538;2022-08-21T05:31:42;96614.72;;;20.25;73.61
73024;BME280;61199;47.526;8.538;2022-08-21T05:34:08;96617.19;;;20.26;72.98
73024;BME280;61199;47.526;8.538;2022-08-21T05:36:35;96622.78;;;20.31;73.11
73024;BME280;61199;47.526;8.538;2022-08-21T05:39:02;96618.66;;;20.29;73.04
73024;BME280;61199;47.526;8.538;2022-08-21T05:41:29;96612.78;;;20.33;72.96
73024;BME280;61199;47.526;8.538;2022-08-21T05:43:59;96605.41;;;20.35;72.04
73024;BME280;61199;47.526;8.538;2022-08-21T05:46:26;96615.22;;;20.35;72.77
73024;BME280;61199;47.526;8.538;2022-08-21T05:48:52;96608.38;;;20.26;72.94
73024;BME280;61199;47.526;8.538;2022-08-21T05:51:19;96613.34;;;20.29;73.00
73024;BME280;61199;47.526;8.538;2022-08-21T05:53:45;96613.56;;;20.34;72.46
73024;BME280;61199;47.526;8.538;2022-08-21T05:56:13;96612.38;;;20.36;72.29
73024;BME280;61199;47.526;8.538;2022-08-21T05:58:39;96607.50;;;20.40;72.09
73024;BME280;61199;47.526;8.538;2022-08-21T06:01:06;96610.78;;;20.42;71.70
73024;BME280;61199;47.526;8.538;2022-08-21T06:03:37;96607.13;;;20.43;72.02
73024;BME280;61199;47.526;8.538;2022-08-21T06:06:04;96610.44;;;20.45;71.88
73024;BME280;61199;47.526;8.538;2022-08-21T06:08:31;96616.75;;;20.44;71.93
73024;BME280;61199;47.526;8.538;2022-08-21T06:10:59;96608.13;;;20.42;72.11
73024;BME280;61199;47.526;8.538;2022-08-21T06:13:26;96608.75;;;20.44;72.01
73024;BME280;61199;47.526;8.538;2022-08-21T06:16:11;96610.94;;;20.55;71.66
73024;BME280;61199;47.526;8.538;2022-08-21T06:18:42;96623.59;;;20.53;71.77
73024;BME280;61199;47.526;8.538;2022-08-21T06:21:09;96619.53;;;20.57;71.92
73024;BME280;61199;47.526;8.538;2022-08-21T06:23:35;96624.09;;;20.63;71.89
73024;BME280;61199;47.526;8.538;2022-08-21T06:26:03;96621.44;;;20.63;71.79
73024;BME280;61199;47.526;8.538;2022-08-21T06:28:32;96622.53;;;20.68;71.68
73024;BME280;61199;47.526;8.538;2022-08-21T06:30:59;96617.88;;;20.77;71.29
73024;BME280;61199;47.526;8.538;2022-08-21T06:33:26;96615.88;;;20.85;70.53
73024;BME280;61199;47.526;8.538;2022-08-21T06:35:57;96618.72;;;20.77;70.85
73024;BME280;61199;47.526;8.538;2022-08-21T06:38:24;96621.16;;;20.79;71.33
73024;BME280;61199;47.526;8.538;2022-08-21T06:40:50;96612.41;;;20.85;70.15
73024;BME280;61199;47.526;8.538;2022-08-21T06:43:17;96611.44;;;20.86;70.83
73024;BME280;61199;47.526;8.538;2022-08-21T06:45:44;96612.50;;;20.91;70.56
73024;BME280;61199;47.526;8.538;2022-08-21T06:48:11;96605.97;;;20.94;70.36
73024;BME280;61199;47.526;8.538;2022-08-21T06:50:44;96603.16;;;21.02;70.36
73024;BME280;61199;47.526;8.538;2022-08-21T06:53:12;96610.53;;;21.00;70.08
73024;BME280;61199;47.526;8.538;2022-08-21T06:55:39;96607.69;;;21.08;69.97
73024;BME280;61199;47.526;8.538;2022-08-21T06:58:06;96609.56;;;21.13;69.75
73024;BME280;61199;47.526;8.538;2022-08-21T07:00:34;96611.47;;;21.19;69.87
73024;BME280;61199;47.526;8.538;2022-08-21T07:03:01;96612.09;;;21.21;69.30
73024;BME280;61199;47.526;8.538;2022-08-21T07:05:29;96609.94;;;21.04;70.01
73024;BME280;61199;47.526;8.538;2022-08-21T07:07:56;96608.47;;;21.02;69.93
73024;BME280;61199;47.526;8.538;2022-08-21T07:10:24;96608.97;;;21.12;69.71
73024;BME280;61199;47.526;8.538;2022-08-21T07:12:52;96617.69;;;20.99;70.11
73024;BME280;61199;47.526;8.538;2022-08-21T07:15:28;96613.69;;;20.89;70.99
73024;BME280;61199;47.526;8.538;2022-08-21T07:17:56;96612.88;;;20.88;71.31
73024;BME280;61199;47.526;8.538;2022-08-21T07:20:23;96618.88;;;20.97;70.99
73024;BME280;61199;47.526;8.538;2022-08-21T07:22:49;96621.06;;;20.87;71.45
73024;BME280;61199;47.526;8.538;2022-08-21T07:25:16;96613.94;;;20.94;71.32
73024;BME280;61199;47.526;8.538;2022-08-21T07:27:43;96617.81;;;20.91;71.27
73024;BME280;61199;47.526;8.538;2022-08-21T07:30:09;96614.81;;;21.01;70.68
73024;BME280;61199;47.526;8.538;2022-08-21T07:32:36;96609.34;;;21.09;70.86
73024;BME280;61199;47.526;8.538;2022-08-21T07:35:02;96611.81;;;21.10;70.80
73024;BME280;61199;47.526;8.538;2022-08-21T07:37:29;96615.44;;;21.03;70.83
73024;BME280;61199;47.526;8.538;2022-08-21T07:39:55;96609.84;;;21.18;70.33
73024;BME280;61199;47.526;8.538;2022-08-21T07:42:22;96613.00;;;21.08;70.51
73024;BME280;61199;47.526;8.538;2022-08-21T07:44:50;96612.31;;;20.93;71.13
73024;BME280;61199;47.526;8.538;2022-08-21T07:47:20;96612.66;;;21.11;70.88
73024;BME280;61199;47.526;8.538;2022-08-21T07:50:07;96608.16;;;21.17;70.50
73024;BME280;61199;47.526;8.538;2022-08-21T07:52:33;96613.47;;;21.17;70.68
73024;BME280;61199;47.526;8.538;2022-08-21T07:55:00;96611.91;;;21.23;70.28
73024;BME280;61199;47.526;8.538;2022-08-21T07:57:32;96622.59;;;21.29;70.53
73024;BME280;61199;47.526;8.538;2022-08-21T07:59:58;96614.28;;;21.12;71.25
73024;BME280;61199;47.526;8.538;2022-08-21T08:02:27;96620.69;;;21.17;71.09
73024;BME280;61199;47.526;8.538;2022-08-21T08:04:58;96620.84;;;21.15;70.96
73024;BME280;61199;47.526;8.538;2022-08-21T08:07:26;96621.78;;;21.29;70.58
73024;BME280;61199;47.526;8.538;2022-08-21T08:09:52;96621.28;;;21.19;71.01
73024;BME280;61199;47.526;8.538;2022-08-21T08:12:19;96620.38;;;21.06;71.18
73024;BME280;61199;47.526;8.538;2022-08-21T08:14:46;96618.16;;;21.09;71.87
73024;BME280;61199;47.526;8.538;2022-08-21T08:17:12;96621.41;;;21.05;71.58
73024;BME280;61199;47.526;8.538;2022-08-21T08:19:39;96622.38;;;20.97;72.33
73024;BME280;61199;47.526;8.538;2022-08-21T08:22:15;96617.53;;;21.07;71.60
73024;BME280;61199;47.526;8.538;2022-08-21T08:24:42;96614.50;;;21.16;71.23
73024;BME280;61199;47.526;8.538;2022-08-21T08:27:09;96618.00;;;21.17;71.93
73024;BME280;61199;47.526;8.538;2022-08-21T08:29:35;96618.44;;;21.20;71.63
73024;BME280;61199;47.526;8.538;2022-08-21T08:32:03;96617.88;;;21.25;70.88
73024;BME280;61199;47.526;8.538;2022-08-21T08:34:29;96611.53;;;21.32;71.26
73024;BME280;61199;47.526;8.538;2022-08-21T08:36:56;96601.66;;;21.26;70.85
73024;BME280;61199;47.526;8.538;2022-08-21T08:39:24;96603.38;;;21.34;71.15
73024;BME280;61199;47.526;8.538;2022-08-21T08:42:16;96605.03;;;21.41;70.70
73024;BME280;61199;47.526;8.538;2022-08-21T08:47:37;96603.69;;;21.58;70.55
73024;BME280;61199;47.526;8.538;2022-08-21T08:50:13;96599.09;;;21.73;70.15
73024;BME280;61199;47.526;8.538;2022-08-21T08:52:49;96602.22;;;21.83;69.70
73024;BME280;61199;47.526;8.538;2022-08-21T08:55:23;96597.91;;;21.89;69.06
73024;BME280;61199;47.526;8.538;2022-08-21T08:57:53;96598.53;;;21.97;68.52
73024;BME280;61199;47.526;8.538;2022-08-21T09:00:21;96595.28;;;22.02;69.04
73024;BME280;61199;47.526;8.538;2022-08-21T09:02:54;96596.75;;;22.11;68.43
73024;BME280;61199;47.526;8.538;2022-08-21T09:05:24;96585.47;;;22.15;68.70
73024;BME280;61199;47.526;8.538;2022-08-21T09:21:31;96583.88;;;21.67;69.56
73024;BME280;61199;47.526;8.538;2022-08-21T09:24:35;96572.75;;;21.64;69.70
73024;BME280;61199;47.526;8.538;2022-08-21T09:27:15;96576.56;;;21.82;69.27
73024;BME280;61199;47.526;8.538;2022-08-21T09:29:46;96571.06;;;21.97;68.55
73024;BME280;61199;47.526;8.538;2022-08-21T09:32:19;96561.63;;;22.07;68.70
73024;BME280;61199;47.526;8.538;2022-08-21T09:34:57;96561.84;;;22.12;68.44
73024;BME280;61199;47.526;8.538;2022-08-21T09:37:26;96567.19;;;22.25;68.67
73024;BME280;61199;47.526;8.538;2022-08-21T09:39:53;96555.66;;;21.92;69.15
73024;BME280;61199;47.526;8.538;2022-08-21T09:42:28;96552.41;;;22.16;68.71
73024;BME280;61199;47.526;8.538;2022-08-21T09:45:16;96547.50;;;22.26;68.65
73024;BME280;61199;47.526;8.538;2022-08-21T09:47:42;96554.09;;;22.37;67.79
73024;BME280;61199;47.526;8.538;2022-08-21T09:50:26;96545.84;;;22.19;67.86
73024;BME280;61199;47.526;8.538;2022-08-21T09:52:58;96547.09;;;22.36;66.78
73024;BME280;61199;47.526;8.538;2022-08-21T09:55:38;96545.50;;;22.48;66.98
73024;BME280;61199;47.526;8.538;2022-08-21T09:58:32;96549.56;;;22.37;67.21
73024;BME280;61199;47.526;8.538;2022-08-21T10:01:01;96538.06;;;22.30;67.37
73024;BME280;61199;47.526;8.538;2022-08-21T10:03:28;96535.44;;;22.56;66.09
73024;BME280;61199;47.526;8.538;2022-08-21T10:06:04;96539.34;;;22.80;65.74
73024;BME280;61199;47.526;8.538;2022-08-21T10:08:37;96531.72;;;22.90;65.31
73024;BME280;61199;47.526;8.538;2022-08-21T10:11:13;96536.41;;;23.07;64.72
73024;BME280;61199;47.526;8.538;2022-08-21T10:14:23;96529.66;;;22.85;64.35
73024;BME280;61199;47.526;8.538;2022-08-21T10:17:05;96530.72;;;22.78;64.80
73024;BME280;61199;47.526;8.538;2022-08-21T10:24:57;96519.75;;;23.18;63.07
73024;BME280;61199;47.526;8.538;2022-08-21T10:27:53;96522.81;;;23.28;62.69
73024;BME280;61199;47.526;8.538;2022-08-21T10:30:43;96517.41;;;23.41;62.27
73024;BME280;61199;47.526;8.538;2022-08-21T10:33:28;96511.88;;;23.36;61.47
73024;BME280;61199;47.526;8.538;2022-08-21T10:36:21;96520.84;;;23.61;60.26
73024;BME280;61199;47.526;8.538;2022-08-21T10:41:59;96509.28;;;23.67;60.75
73024;BME280;61199;47.526;8.538;2022-08-21T10:47:38;96507.78;;;23.78;59.89
73024;BME280;61199;47.526;8.538;2022-08-21T10:50:34;96495.81;;;23.93;57.67
73024;BME280;61199;47.526;8.538;2022-08-21T10:53:32;96495.44;;;24.14;56.89
73024;BME280;61199;47.526;8.538;2022-08-21T10:56:13;96494.31;;;23.97;57.89
73024;BME280;61199;47.526;8.538;2022-08-21T10:58:47;96478.91;;;23.93;57.15
73024;BME280;61199;47.526;8.538;2022-08-21T11:01:33;96475.16;;;24.00;56.20
73024;BME280;61199;47.526;8.538;2022-08-21T11:04:11;96476.97;;;24.06;56.92
73024;BME280;61199;47.526;8.538;2022-08-21T11:06:46;96472.31;;;23.95;56.73
73024;BME280;61199;47.526;8.538;2022-08-21T11:09:18;96474.72;;;24.03;55.77
73024;BME280;61199;47.526;8.538;2022-08-21T11:14:54;96462.13;;;24.10;55.46
73024;BME280;61199;47.526;8.538;2022-08-21T11:17:33;96468.28;;;24.11;55.43
73024;BME280;61199;47.526;8.538;2022-08-21T11:20:11;96459.72;;;24.27;54.97
73024;BME280;61199;47.526;8.538;2022-08-21T11:22:53;96457.63;;;24.53;54.10
73024;BME280;61199;47.526;8.538;2022-08-21T11:25:37;96450.22;;;24.55;54.15
73024;BME280;61199;47.526;8.538;2022-08-21T11:28:17;96458.47;;;24.53;53.60
73024;BME280;61199;47.526;8.538;2022-08-21T11:33:50;96447.28;;;24.81;52.40
73024;BME280;61199;47.526;8.538;2022-08-21T11:36:34;96442.38;;;24.78;51.88
73024;BME280;61199;47.526;8.538;2022-08-21T11:39:16;96440.56;;;24.72;51.90
73024;BME280;61199;47.526;8.538;2022-08-21T11:41:53;96436.50;;;24.69;52.31
73024;BME280;61199;47.526;8.538;2022-08-21T11:47:44;96436.50;;;25.05;51.49
73024;BME280;61199;47.526;8.538;2022-08-21T11:50:22;96426.44;;;25.37;51.10
73024;BME280;61199;47.526;8.538;2022-08-21T11:53:14;96439.50;;;25.51;50.99
73024;BME280;61199;47.526;8.538;2022-08-21T11:56:02;96433.09;;;25.34;51.47
73024;BME280;61199;47.526;8.538;2022-08-21T11:58:39;96425.94;;;25.46;50.85
73024;BME280;61199;47.526;8.538;2022-08-21T12:01:14;96422.38;;;25.64;49.89
73024;BME280;61199;47.526;8.538;2022-08-21T12:03:53;96417.53;;;25.72;49.83
73024;BME280;61199;47.526;8.538;2022-08-21T12:09:10;96415.19;;;25.46;51.15
73024;BME280;61199;47.526;8.538;2022-08-21T12:11:49;96423.19;;;25.35;50.94
73024;BME280;61199;47.526;8.538;2022-08-21T12:14:18;96415.56;;;25.50;50.79
73024;BME280;61199;47.526;8.538;2022-08-21T12:16:47;96406.00;;;25.54;49.80
73024;BME280;61199;47.526;8.538;2022-08-21T12:24:35;96412.09;;;25.61;47.76
73024;BME280;61199;47.526;8.538;2022-08-21T12:27:28;96408.84;;;25.88;47.29
73024;BME280;61199;47.526;8.538;2022-08-21T12:30:00;96408.16;;;26.04;47.91
73024;BME280;61199;47.526;8.538;2022-08-21T12:32:53;96406.78;;;26.13;45.38
73024;BME280;61199;47.526;8.538;2022-08-21T12:35:25;96406.00;;;26.36;45.12
73024;BME280;61199;47.526;8.538;2022-08-21T12:38:07;96405.44;;;26.45;45.31
73024;BME280;61199;47.526;8.538;2022-08-21T12:40:56;96408.22;;;26.50;45.00
73024;BME280;61199;47.526;8.538;2022-08-21T12:43:40;96399.25;;;26.68;43.95
73024;BME280;61199;47.526;8.538;2022-08-21T12:46:18;96388.72;;;26.78;43.95
73024;BME280;61199;47.526;8.538;2022-08-21T12:48:52;96387.19;;;26.82;43.06
73024;BME280;61199;47.526;8.538;2022-08-21T12:51:27;96390.50;;;26.84;43.22
73024;BME280;61199;47.526;8.538;2022-08-21T12:53:58;96387.78;;;26.84;43.83
73024;BME280;61199;47.526;8.538;2022-08-21T12:56:31;96382.72;;;26.87;43.21
73024;BME280;61199;47.526;8.538;2022-08-21T12:59:06;96383.34;;;26.78;42.80
73024;BME280;61199;47.526;8.538;2022-08-21T13:01:37;96379.78;;;27.12;41.96
73024;BME280;61199;47.526;8.538;2022-08-21T13:04:14;96384.72;;;27.15;40.94
73024;BME280;61199;47.526;8.538;2022-08-21T13:06:47;96386.59;;;27.03;41.19
73024;BME280;61199;47.526;8.538;2022-08-21T13:09:16;96388.47;;;27.14;40.46
73024;BME280;61199;47.526;8.538;2022-08-21T13:11:46;96387.38;;;27.26;44.16
73024;BME280;61199;47.526;8.538;2022-08-21T13:14:36;96379.91;;;27.45;42.37
73024;BME280;61199;47.526;8.538;2022-08-21T13:17:11;96377.22;;;27.45;40.85
73024;BME280;61199;47.526;8.538;2022-08-21T13:20:04;96373.78;;;27.61;40.91
73024;BME280;61199;47.526;8.538;2022-08-21T13:22:31;96379.16;;;27.61;39.60
73024;BME280;61199;47.526;8.538;2022-08-21T13:25:01;96366.94;;;27.70;39.68
73024;BME280;61199;47.526;8.538;2022-08-21T13:27:33;96368.22;;;27.79;39.14
73024;BME280;61199;47.526;8.538;2022-08-21T13:30:11;96370.06;;;27.78;39.19
73024;BME280;61199;47.526;8.538;2022-08-21T13:32:43;96373.03;;;28.09;38.58
73024;BME280;61199;47.526;8.538;2022-08-21T13:35:14;96374.34;;;27.90;37.48
73024;BME280;61199;47.526;8.538;2022-08-21T13:37:46;96368.94;;;27.90;37.57
73024;BME280;61199;47.526;8.538;2022-08-21T13:40:17;96364.63;;;27.89;36.90
73024;BME280;61199;47.526;8.538;2022-08-21T13:42:47;96366.03;;;28.08;37.17
73024;BME280;61199;47.526;8.538;2022-08-21T13:45:24;96368.66;;;28.36;36.37
73024;BME280;61199;47.526;8.538;2022-08-21T13:47:51;96360.22;;;28.16;36.49
73024;BME280;61199;47.526;8.538;2022-08-21T13:50:20;96363.91;;;28.43;35.77
73024;BME280;61199;47.526;8.538;2022-08-21T13:53:01;96355.84;;;28.43;35.87
73024;BME280;61199;47.526;8.538;2022-08-21T13:55:41;96353.94;;;28.27;35.58
73024;BME280;61199;47.526;8.538;2022-08-21T13:58:09;96353.78;;;28.17;35.94
73024;BME280;61199;47.526;8.538;2022-08-21T14:00:46;96353.63;;;28.40;35.96
73024;BME280;61199;47.526;8.538;2022-08-21T14:03:26;96346.34;;;28.57;35.04
73024;BME280;61199;47.526;8.538;2022-08-21T14:05:53;96349.03;;;28.79;34.77